sensor_id;sensor_type;location;lat;lon;timestamp;pressure;altitude;pressure_sealevel;temperature;humidity
60319;BME280;46163;52.306;5.634;2023-03-18T00:00:08;100600.66;;;17.45;53.12
60319;BME280;46163;52.306;5.634;2023-03-18T00:02:37;100603.59;;;17.43;53.34
60319;BME280;46163;52.306;5.634;2023-03-18T00:05:06;100600.09;;;17.43;53.30
60319;BME280;46163;52.306;5.634;2023-03-18T00:07:33;100600.34;;;17.41;53.32
60319;BME280;46163;52.306;5.634;2023-03-18T00:09:59;100606.81;;;17.40;53.35
60319;BME280;46163;52.306;5.634;2023-03-18T00:12:27;100617.81;;;17.39;53.32
60319;BME280;46163;52.306;5.634;2023-03-18T00:14:53;100617.00;;;17.38;53.39
60319;BME280;46163;52.306;5.634;2023-03-18T00:17:21;100616.69;;;17.35;53.59
60319;BME280;46163;52.306;5.634;2023-03-18T00:19:46;100621.00;;;17.36;53.34
60319;BME280;46163;52.306;5.634;2023-03-18T00:22:13;100629.31;;;17.34;53.41
60319;BME280;46163;52.306;5.634;2023-03-18T00:24:38;100622.31;;;17.33;53.42
60319;BME280;46163;52.306;5.634;2023-03-18T00:27:05;100627.38;;;17.30;53.55
60319;BME280;46163;52.306;5.634;2023-03-18T00:29:30;100629.00;;;17.31;53.58
60319;BME280;46163;52.306;5.634;2023-03-18T00:31:59;100632.19;;;17.28;53.64
60319;BME280;46163;52.306;5.634;2023-03-18T00:34:24;100623.00;;;17.23;53.49
60319;BME280;46163;52.306;5.634;2023-03-18T00:36:50;100627.56;;;17.23;53.54
60319;BME280;46163;52.306;5.634;2023-03-18T00:39:22;100637.81;;;17.26;53.63
60319;BME280;46163;52.306;5.634;2023-03-18T00:41:54;100631.88;;;17.24;53.46
60319;BME280;46163;52.306;5.634;2023-03-18T00:44:20;100635.88;;;17.21;53.50
60319;BME280;46163;52.306;5.634;2023-03-18T00:46:46;100642.09;;;17.22;53.58
60319;BME280;46163;52.306;5.634;2023-03-18T00:49:12;100649.34;;;17.21;53.43
60319;BME280;46163;52.306;5.634;2023-03-18T00:51:38;100647.13;;;17.18;53.38
60319;BME280;46163;52.306;5.634;2023-03-18T00:54:07;100636.56;;;17.12;53.48
60319;BME280;46163;52.306;5.634;2023-03-18T00:56:35;100639.81;;;17.14;53.34
60319;BME280;46163;52.306;5.634;2023-03-18T00:59:02;100650.06;;;17.17;53.49
60319;BME280;46163;52.306;5.634;2023-03-18T01:01:28;100641.13;;;17.11;53.44
60319;BME280;46163;52.306;5.634;2023-03-18T01:03:54;100652.19;;;17.15;53.36
60319;BME280;46163;52.306;5.634;2023-03-18T01:06:26;100653.25;;;17.14;53.55
60319;BME280;46163;52.306;5.634;2023-03-18T01:08:53;100644.66;;;17.12;53.58
60319;BME280;46163;52.306;5.634;2023-03-18T01:11:20;100659.13;;;17.11;53.40
60319;BME280;46163;52.306;5.634;2023-03-18T01:13:45;100639.75;;;17.09;53.39
60319;BME280;46163;52.306;5.634;2023-03-18T01:16:11;100641.63;;;17.08;53.57
60319;BME280;46163;52.306;5.634;2023-03-18T01:18:38;100647.00;;;17.08;53.52
60319;BME280;46163;52.306;5.634;2023-03-18T01:21:04;100651.00;;;17.06;53.35
60319;BME280;46163;52.306;5.634;2023-03-18T01:23:30;100642.13;;;17.05;53.28
60319;BME280;46163;52.306;5.634;2023-03-18T01:25:57;100645.06;;;17.04;53.83
60319;BME280;46163;52.306;5.634;2023-03-18T01:28:23;100636.66;;;17.00;53.49
60319;BME280;46163;52.306;5.634;2023-03-18T01:30:51;100636.41;;;17.02;53.44
60319;BME280;46163;52.306;5.634;2023-03-18T01:33:17;100646.59;;;17.00;53.25
60319;BME280;46163;52.306;5.634;2023-03-18T01:35:44;100636.03;;;16.93;53.49
60319;BME280;46163;52.306;5.634;2023-03-18T01:38:12;100644.16;;;16.98;53.30
60319;BME280;46163;52.306;5.634;2023-03-18T01:40:38;100643.34;;;16.98;53.29
60319;BME280;46163;52.306;5.634;2023-03-18T01:45:36;100649.00;;;16.96;53.32
60319;BME280;46163;52.306;5.634;2023-03-18T01:48:03;100643.88;;;16.94;53.42
60319;BME280;46163;52.306;5.634;2023-03-18T01:50:33;100643.06;;;16.94;53.45
60319;BME280;46163;52.306;5.634;2023-03-18T01:53:04;100637.91;;;16.92;53.23
60319;BME280;46163;52.306;5.634;2023-03-18T01:55:31;100635.47;;;16.91;53.51
60319;BME280;46163;52.306;5.634;2023-03-18T01:57:58;100640.03;;;16.90;53.38
60319;BME280;46163;52.306;5.634;2023-03-18T02:00:25;100641.09;;;16.89;53.24
60319;BME280;46163;52.306;5.634;2023-03-18T02:02:53;100642.16;;;16.88;53.54
60319;BME280;46163;52.306;5.634;2023-03-18T02:05:21;100647.53;;;16.88;53.26
60319;BME280;46163;52.306;5.634;2023-03-18T02:07:48;100630.50;;;16.83;53.17
60319;BME280;46163;52.306;5.634;2023-03-18T02:10:34;100638.91;;;16.86;53.45
60319;BME280;46163;52.306;5.634;2023-03-18T02:13:07;100647.19;;;16.85;53.29
60319;BME280;46163;52.306;5.634;2023-03-18T02:15:39;100641.00;;;16.84;53.23
60319;BME280;46163;52.306;5.634;2023-03-18T02:18:13;100643.69;;;16.84;53.45
60319;BME280;46163;52.306;5.634;2023-03-18T02:26:58;100650.63;;;16.80;53.11
60319;BME280;46163;52.306;5.634;2023-03-18T02:29:27;100653.31;;;16.80;53.26
60319;BME280;46163;52.306;5.634;2023-03-18T02:31:54;100650.88;;;16.79;53.28
60319;BME280;46163;52.306;5.634;2023-03-18T02:34:22;100650.88;;;16.79;53.26
60319;BME280;46163;52.306;5.634;2023-03-18T02:36:49;100655.44;;;16.78;53.21
60319;BME280;46163;52.306;5.634;2023-03-18T02:39:15;100658.38;;;16.77;53.31
60319;BME280;46163;52.306;5.634;2023-03-18T02:41:41;100658.38;;;16.77;53.26
60319;BME280;46163;52.306;5.634;2023-03-18T02:44:06;100663.97;;;16.75;53.26
60319;BME280;46163;52.306;5.634;2023-03-18T02:49:17;100661.53;;;16.74;53.64
60319;BME280;46163;52.306;5.634;2023-03-18T02:51:44;100655.59;;;16.72;53.28
60319;BME280;46163;52.306;5.634;2023-03-18T02:54:17;100666.09;;;16.73;53.06
60319;BME280;46163;52.306;5.634;2023-03-18T02:56:43;100675.22;;;16.72;53.05
60319;BME280;46163;52.306;5.634;2023-03-18T02:59:10;100676.28;;;16.71;53.20
60319;BME280;46163;52.306;5.634;2023-03-18T03:01:38;100684.34;;;16.71;53.26
60319;BME280;46163;52.306;5.634;2023-03-18T03:04:04;100671.97;;;16.70;53.20
60319;BME280;46163;52.306;5.634;2023-03-18T03:06:31;100675.72;;;16.69;53.31
60319;BME280;46163;52.306;5.634;2023-03-18T03:08:57;100666.47;;;16.65;53.22
60319;BME280;46163;52.306;5.634;2023-03-18T03:11:25;100668.69;;;16.68;53.34
60319;BME280;46163;52.306;5.634;2023-03-18T03:13:51;100676.97;;;16.66;53.16
60319;BME280;46163;52.306;5.634;2023-03-18T03:16:18;100671.78;;;16.60;53.21
60319;BME280;46163;52.306;5.634;2023-03-18T03:18:43;100677.78;;;16.67;53.20
60319;BME280;46163;52.306;5.634;2023-03-18T03:21:10;100678.84;;;16.66;53.14
60319;BME280;46163;52.306;5.634;2023-03-18T03:23:36;100681.53;;;16.66;53.33
60319;BME280;46163;52.306;5.634;2023-03-18T03:26:02;100680.97;;;16.64;53.13
60319;BME280;46163;52.306;5.634;2023-03-18T03:28:29;100675.59;;;16.64;53.17
60319;BME280;46163;52.306;5.634;2023-03-18T03:30:56;100667.53;;;16.64;53.34
60319;BME280;46163;52.306;5.634;2023-03-18T03:33:22;100665.91;;;16.63;53.22
60319;BME280;46163;52.306;5.634;2023-03-18T03:35:48;100675.84;;;16.62;53.12
60319;BME280;46163;52.306;5.634;2023-03-18T03:38:14;100673.16;;;16.62;53.24
60319;BME280;46163;52.306;5.634;2023-03-18T03:40:40;100679.25;;;16.58;53.05
60319;BME280;46163;52.306;5.634;2023-03-18T03:43:06;100678.44;;;16.57;53.29
60319;BME280;46163;52.306;5.634;2023-03-18T03:45:31;100686.84;;;16.61;53.15
60319;BME280;46163;52.306;5.634;2023-03-18T03:47:58;100684.41;;;16.59;53.13
60319;BME280;46163;52.306;5.634;2023-03-18T03:50:24;100680.88;;;16.59;53.14
60319;BME280;46163;52.306;5.634;2023-03-18T03:52:50;100694.56;;;16.57;53.29
60319;BME280;46163;52.306;5.634;2023-03-18T03:55:18;100697.25;;;16.57;53.19
60319;BME280;46163;52.306;5.634;2023-03-18T03:57:44;100690.00;;;16.58;53.26
60319;BME280;46163;52.306;5.634;2023-03-18T04:00:14;100694.81;;;16.56;53.35
60319;BME280;46163;52.306;5.634;2023-03-18T04:02:42;100703.69;;;16.56;53.26
60319;BME280;46163;52.306;5.634;2023-03-18T04:05:11;100697.50;;;16.56;53.27
60319;BME280;46163;52.306;5.634;2023-03-18T04:07:38;100699.63;;;16.54;53.30
60319;BME280;46163;52.306;5.634;2023-03-18T04:10:04;100701.25;;;16.55;53.08
60319;BME280;46163;52.306;5.634;2023-03-18T04:12:30;100705.00;;;16.54;53.06
60319;BME280;46163;52.306;5.634;2023-03-18T04:14:55;100701.50;;;16.53;53.01
60319;BME280;46163;52.306;5.634;2023-03-18T04:17:21;100708.50;;;16.54;53.20
60319;BME280;46163;52.306;5.634;2023-03-18T04:19:47;100707.94;;;16.52;53.14
60319;BME280;46163;52.306;5.634;2023-03-18T04:22:12;100707.13;;;16.52;53.12
60319;BME280;46163;52.306;5.634;2023-03-18T04:24:38;100704.44;;;16.52;53.04
60319;BME280;46163;52.306;5.634;2023-03-18T04:27:03;100705.50;;;16.51;53.24
60319;BME280;46163;52.306;5.634;2023-03-18T04:29:29;100709.81;;;16.52;53.08
60319;BME280;46163;52.306;5.634;2023-03-18T04:31:56;100709.22;;;16.50;53.29
60319;BME280;46163;52.306;5.634;2023-03-18T04:34:23;100709.22;;;16.50;53.08
60319;BME280;46163;52.306;5.634;2023-03-18T04:36:49;100703.84;;;16.50;53.15
60319;BME280;46163;52.306;5.634;2023-03-18T04:39:15;100705.72;;;16.49;53.13
60319;BME280;46163;52.306;5.634;2023-03-18T04:41:40;100702.72;;;16.46;53.23
60319;BME280;46163;52.306;5.634;2023-03-18T04:44:07;100706.78;;;16.48;53.04
60319;BME280;46163;52.306;5.634;2023-03-18T04:46:32;100708.41;;;16.49;53.03
60319;BME280;46163;52.306;5.634;2023-03-18T04:48:58;100717.50;;;16.48;53.10
60319;BME280;46163;52.306;5.634;2023-03-18T04:51:24;100711.34;;;16.48;53.09
60319;BME280;46163;52.306;5.634;2023-03-18T04:53:52;100714.81;;;16.48;53.07
60319;BME280;46163;52.306;5.634;2023-03-18T04:56:18;100711.34;;;16.48;53.21
60319;BME280;46163;52.306;5.634;2023-03-18T04:58:44;100707.28;;;16.45;52.91
60319;BME280;46163;52.306;5.634;2023-03-18T05:01:10;100702.22;;;16.49;52.91
60319;BME280;46163;52.306;5.634;2023-03-18T05:03:37;100706.06;;;16.53;53.11
60319;BME280;46163;52.306;5.634;2023-03-18T05:06:04;100712.81;;;16.55;52.94
60319;BME280;46163;52.306;5.634;2023-03-18T05:08:29;100716.41;;;16.61;52.93
60319;BME280;46163;52.306;5.634;2023-03-18T05:10:55;100714.38;;;16.68;52.96
60319;BME280;46163;52.306;5.634;2023-03-18T05:13:20;100716.09;;;16.74;52.68
60319;BME280;46163;52.306;5.634;2023-03-18T05:15:46;100718.06;;;16.79;52.64
60319;BME280;46163;52.306;5.634;2023-03-18T05:18:11;100723.28;;;16.85;52.43
60319;BME280;46163;52.306;5.634;2023-03-18T05:20:37;100726.03;;;16.90;52.28
60319;BME280;46163;52.306;5.634;2023-03-18T05:23:04;100728.00;;;16.95;52.20
60319;BME280;46163;52.306;5.634;2023-03-18T05:25:30;100731.09;;;17.04;52.11
60319;BME280;46163;52.306;5.634;2023-03-18T05:27:56;100730.09;;;17.10;51.86
60319;BME280;46163;52.306;5.634;2023-03-18T05:30:22;100732.88;;;17.15;51.66
60319;BME280;46163;52.306;5.634;2023-03-18T05:32:48;100729.94;;;17.16;51.73
60319;BME280;46163;52.306;5.634;2023-03-18T05:35:14;100727.63;;;17.25;51.68
60319;BME280;46163;52.306;5.634;2023-03-18T05:37:39;100740.66;;;17.33;51.34
60319;BME280;46163;52.306;5.634;2023-03-18T05:40:05;100734.78;;;17.36;51.50
60319;BME280;46163;52.306;5.634;2023-03-18T05:42:36;100735.13;;;17.40;51.29
60319;BME280;46163;52.306;5.634;2023-03-18T05:45:03;100739.72;;;17.44;51.05
60319;BME280;46163;52.306;5.634;2023-03-18T05:47:29;100749.25;;;17.52;51.06
60319;BME280;46163;52.306;5.634;2023-03-18T05:49:55;100752.50;;;17.54;50.79
60319;BME280;46163;52.306;5.634;2023-03-18T05:52:22;100744.78;;;17.58;50.77
60319;BME280;46163;52.306;5.634;2023-03-18T05:54:51;100757.72;;;17.61;50.81
60319;BME280;46163;52.306;5.634;2023-03-18T05:57:16;100761.78;;;17.63;50.76
60319;BME280;46163;52.306;5.634;2023-03-18T05:59:42;100759.94;;;17.64;50.41
60319;BME280;46163;52.306;5.634;2023-03-18T06:02:08;100754.28;;;17.65;50.72
60319;BME280;46163;52.306;5.634;2023-03-18T06:04:37;100764.25;;;17.65;50.49
60319;BME280;46163;52.306;5.634;2023-03-18T06:07:03;100772.88;;;17.67;50.55
60319;BME280;46163;52.306;5.634;2023-03-18T06:09:30;100764.00;;;17.66;50.36
60319;BME280;46163;52.306;5.634;2023-03-18T06:11:58;100772.88;;;17.67;50.55
60319;BME280;46163;52.306;5.634;2023-03-18T06:14:23;100774.50;;;17.68;50.39
60319;BME280;46163;52.306;5.634;2023-03-18T06:16:59;100777.78;;;17.70;50.58
60319;BME280;46163;52.306;5.634;2023-03-18T06:19:27;100776.94;;;17.69;50.64
60319;BME280;46163;52.306;5.634;2023-03-18T06:21:55;100783.16;;;17.70;50.57
60319;BME280;46163;52.306;5.634;2023-03-18T06:24:21;100774.03;;;17.71;50.51
60319;BME280;46163;52.306;5.634;2023-03-18T06:26:46;100779.19;;;17.72;50.69
60319;BME280;46163;52.306;5.634;2023-03-18T06:29:12;100780.56;;;17.75;50.61
60319;BME280;46163;52.306;5.634;2023-03-18T06:31:37;100794.81;;;17.75;50.50
60319;BME280;46163;52.306;5.634;2023-03-18T06:34:03;100798.06;;;17.77;50.09
60319;BME280;46163;52.306;5.634;2023-03-18T06:36:29;100798.31;;;17.76;49.99
60319;BME280;46163;52.306;5.634;2023-03-18T06:38:54;100811.88;;;17.81;50.48
60319;BME280;46163;52.306;5.634;2023-03-18T06:41:20;100798.97;;;17.83;50.20
60319;BME280;46163;52.306;5.634;2023-03-18T06:43:46;100809.75;;;17.83;50.35
60319;BME280;46163;52.306;5.634;2023-03-18T06:46:15;100803.84;;;17.86;50.19
60319;BME280;46163;52.306;5.634;2023-03-18T06:48:40;100807.69;;;17.90;50.05
60319;BME280;46163;52.306;5.634;2023-03-18T06:51:07;100807.44;;;17.92;50.06
60319;BME280;46163;52.306;5.634;2023-03-18T06:53:34;100818.50;;;17.95;50.09
60319;BME280;46163;52.306;5.634;2023-03-18T06:56:01;100826.09;;;17.98;50.00
60319;BME280;46163;52.306;5.634;2023-03-18T06:58:27;100830.41;;;17.99;49.95
60319;BME280;46163;52.306;5.634;2023-03-18T07:00:53;100829.91;;;18.02;49.93
60319;BME280;46163;52.306;5.634;2023-03-18T07:03:18;100825.06;;;18.04;50.01
60319;BME280;46163;52.306;5.634;2023-03-18T07:05:44;100824.81;;;18.06;49.75
60319;BME280;46163;52.306;5.634;2023-03-18T07:08:09;100813.81;;;18.07;50.00
60319;BME280;46163;52.306;5.634;2023-03-18T07:10:35;100814.38;;;18.10;50.07
60319;BME280;46163;52.306;5.634;2023-03-18T07:13:01;100818.69;;;18.11;49.65
60319;BME280;46163;52.306;5.634;2023-03-18T07:15:26;100827.59;;;18.11;49.91
60319;BME280;46163;52.306;5.634;2023-03-18T07:17:52;100832.72;;;18.13;49.76
60319;BME280;46163;52.306;5.634;2023-03-18T07:20:20;100830.53;;;18.10;49.54
60319;BME280;46163;52.306;5.634;2023-03-18T07:22:47;100837.84;;;18.14;49.89
60319;BME280;46163;52.306;5.634;2023-03-18T07:25:13;100834.09;;;18.15;49.83
60319;BME280;46163;52.306;5.634;2023-03-18T07:27:39;100843.00;;;18.16;49.67
60319;BME280;46163;52.306;5.634;2023-03-18T07:30:07;100838.66;;;18.15;49.78
60319;BME280;46163;52.306;5.634;2023-03-18T07:32:35;100842.44;;;18.14;49.71
60319;BME280;46163;52.306;5.634;2023-03-18T07:35:01;100849.44;;;18.15;49.87
60319;BME280;46163;52.306;5.634;2023-03-18T07:37:29;100845.13;;;18.14;49.93
60319;BME280;46163;52.306;5.634;2023-03-18T07:39:54;100840.81;;;18.13;49.82
60319;BME280;46163;52.306;5.634;2023-03-18T07:42:20;100849.69;;;18.13;49.92
60319;BME280;46163;52.306;5.634;2023-03-18T07:44:46;100852.38;;;18.13;49.78
60319;BME280;46163;52.306;5.634;2023-03-18T07:47:12;100847.00;;;18.13;50.12
60319;BME280;46163;52.306;5.634;2023-03-18T07:49:39;100855.34;;;18.12;49.81
60319;BME280;46163;52.306;5.634;2023-03-18T07:52:06;100857.47;;;18.10;50.00
60319;BME280;46163;52.306;5.634;2023-03-18T07:54:32;100858.53;;;18.08;50.17
60319;BME280;46163;52.306;5.634;2023-03-18T07:56:57;100860.09;;;18.04;50.23
60319;BME280;46163;52.306;5.634;2023-03-18T07:59:23;100860.16;;;18.10;50.00
60319;BME280;46163;52.306;5.634;2023-03-18T08:01:49;100863.91;;;18.08;50.20
60319;BME280;46163;52.306;5.634;2023-03-18T08:04:14;100870.94;;;18.10;49.83
60319;BME280;46163;52.306;5.634;2023-03-18T08:06:41;100870.16;;;18.14;50.08
60319;BME280;46163;52.306;5.634;2023-03-18T08:09:07;100869.94;;;18.16;49.94
60319;BME280;46163;52.306;5.634;2023-03-18T08:11:33;100881.28;;;18.18;50.07
60319;BME280;46163;52.306;5.634;2023-03-18T08:13:59;100874.00;;;18.18;50.04
60319;BME280;46163;52.306;5.634;2023-03-18T08:16:25;100867.63;;;18.24;50.01
60319;BME280;46163;52.306;5.634;2023-03-18T08:18:51;100867.38;;;18.26;50.12
60319;BME280;46163;52.306;5.634;2023-03-18T08:21:17;100877.63;;;18.29;49.98
60319;BME280;46163;52.306;5.634;2023-03-18T08:23:43;100868.75;;;18.28;49.84
60319;BME280;46163;52.306;5.634;2023-03-18T08:26:09;100870.94;;;18.31;49.88
60319;BME280;46163;52.306;5.634;2023-03-18T08:28:35;100869.63;;;18.34;49.61
60319;BME280;46163;52.306;5.634;2023-03-18T08:31:00;100874.44;;;18.32;49.91
60319;BME280;46163;52.306;5.634;2023-03-18T08:33:27;100872.31;;;18.34;49.82
60319;BME280;46163;52.306;5.634;2023-03-18T08:35:54;100874.50;;;18.37;49.80
60319;BME280;46163;52.306;5.634;2023-03-18T08:38:20;100875.56;;;18.36;49.82
60319;BME280;46163;52.306;5.634;2023-03-18T08:40:45;100876.13;;;18.38;49.96
60319;BME280;46163;52.306;5.634;2023-03-18T08:43:12;100886.91;;;18.38;49.88
60319;BME280;46163;52.306;5.634;2023-03-18T08:45:37;100886.41;;;18.41;49.67
60319;BME280;46163;52.306;5.634;2023-03-18T08:48:03;100885.84;;;18.39;49.94
60319;BME280;46163;52.306;5.634;2023-03-18T08:50:29;100885.59;;;18.41;49.73
60319;BME280;46163;52.306;5.634;2023-03-18T08:52:59;100884.03;;;18.45;49.70
60319;BME280;46163;52.306;5.634;2023-03-18T08:55:30;100880.28;;;18.46;49.64
60319;BME280;46163;52.306;5.634;2023-03-18T08:57:56;100885.91;;;18.44;49.83
60319;BME280;46163;52.306;5.634;2023-03-18T09:00:22;100888.59;;;18.44;50.11
60319;BME280;46163;52.306;5.634;2023-03-18T09:02:47;100888.59;;;18.44;50.54
60319;BME280;46163;52.306;5.634;2023-03-18T09:05:13;100874.25;;;18.39;50.61
60319;BME280;46163;52.306;5.634;2023-03-18T09:07:39;100896.69;;;18.44;50.77
60319;BME280;46163;52.306;5.634;2023-03-18T09:10:05;100890.50;;;18.44;50.78
60319;BME280;46163;52.306;5.634;2023-03-18T09:12:31;100893.44;;;18.42;50.65
60319;BME280;46163;52.306;5.634;2023-03-18T09:14:57;100892.59;;;18.42;50.82
60319;BME280;46163;52.306;5.634;2023-03-18T09:17:23;100898.84;;;18.42;50.84
60319;BME280;46163;52.306;5.634;2023-03-18T09:19:48;100893.66;;;18.41;51.14
60319;BME280;46163;52.306;5.634;2023-03-18T09:22:14;100897.19;;;18.41;50.88
60319;BME280;46163;52.306;5.634;2023-03-18T09:24:41;100900.94;;;18.40;50.79
60319;BME280;46163;52.306;5.634;2023-03-18T09:27:06;100893.94;;;18.39;50.98
60319;BME280;46163;52.306;5.634;2023-03-18T09:29:35;100898.25;;;18.40;50.72
60319;BME280;46163;52.306;5.634;2023-03-18T09:32:00;100897.44;;;18.40;51.10
60319;BME280;46163;52.306;5.634;2023-03-18T09:34:26;100904.97;;;18.38;51.22
60319;BME280;46163;52.306;5.634;2023-03-18T09:36:51;100909.78;;;18.35;51.41
60319;BME280;46163;52.306;5.634;2023-03-18T09:39:18;100901.44;;;18.37;51.55
60319;BME280;46163;52.306;5.634;2023-03-18T09:42:14;100905.78;;;18.38;51.74
60319;BME280;46163;52.306;5.634;2023-03-18T09:44:43;100898.19;;;18.35;51.72
60319;BME280;46163;52.306;5.634;2023-03-18T09:52:44;100914.84;;;18.32;51.96
60319;BME280;46163;52.306;5.634;2023-03-18T09:55:17;100910.78;;;18.29;52.09
60319;BME280;46163;52.306;5.634;2023-03-18T09:57:48;100902.13;;;18.27;52.22
60319;BME280;46163;52.306;5.634;2023-03-18T10:00:36;100914.25;;;18.25;52.24
60319;BME280;46163;52.306;5.634;2023-03-18T10:03:14;100914.41;;;18.18;52.40
60319;BME280;46163;52.306;5.634;2023-03-18T10:05:52;100909.88;;;18.24;52.42
60319;BME280;46163;52.306;5.634;2023-03-18T10:08:26;100921.50;;;18.24;52.27
60319;BME280;46163;52.306;5.634;2023-03-18T10:10:54;100918.81;;;18.24;52.48
60319;BME280;46163;52.306;5.634;2023-03-18T10:13:32;100919.13;;;18.28;52.10
60319;BME280;46163;52.306;5.634;2023-03-18T10:16:03;100925.00;;;18.25;51.93
60319;BME280;46163;52.306;5.634;2023-03-18T10:18:36;100934.13;;;18.24;52.45
60319;BME280;46163;52.306;5.634;2023-03-18T10:26:40;100922.75;;;18.17;52.21
60319;BME280;46163;52.306;5.634;2023-03-18T10:29:35;100931.53;;;18.29;52.04
60319;BME280;46163;52.306;5.634;2023-03-18T10:32:32;100936.19;;;18.33;52.19
60319;BME280;46163;52.306;5.634;2023-03-18T10:38:23;100927.31;;;18.38;51.89
60319;BME280;46163;52.306;5.634;2023-03-18T10:40:51;100927.63;;;18.42;51.96
60319;BME280;46163;52.306;5.634;2023-03-18T10:43:20;100918.25;;;18.44;51.89
60319;BME280;46163;52.306;5.634;2023-03-18T10:45:48;100930.16;;;18.48;51.57
60319;BME280;46163;52.306;5.634;2023-03-18T10:48:20;100911.84;;;18.50;51.49
60319;BME280;46163;52.306;5.634;2023-03-18T10:53:57;100912.69;;;18.51;51.38
60319;BME280;46163;52.306;5.634;2023-03-18T10:56:26;100903.75;;;18.50;51.60
60319;BME280;46163;52.306;5.634;2023-03-18T10:58:53;100907.50;;;18.49;51.11
60319;BME280;46163;52.306;5.634;2023-03-18T11:01:20;100904.81;;;18.49;50.85
60319;BME280;46163;52.306;5.634;2023-03-18T11:04:14;100902.72;;;18.51;50.95
60319;BME280;46163;52.306;5.634;2023-03-18T11:06:45;100902.47;;;18.53;51.02
60319;BME280;46163;52.306;5.634;2023-03-18T11:09:17;100908.09;;;18.51;50.72
60319;BME280;46163;52.306;5.634;2023-03-18T11:11:45;100888.16;;;18.52;50.84
60319;BME280;46163;52.306;5.634;2023-03-18T11:14:15;100879.19;;;18.47;50.60
60319;BME280;46163;52.306;5.634;2023-03-18T11:16:55;100878.50;;;18.56;50.46
60319;BME280;46163;52.306;5.634;2023-03-18T11:19:26;100885.03;;;18.60;50.15
60319;BME280;46163;52.306;5.634;2023-03-18T11:22:04;100879.88;;;18.59;50.08
60319;BME280;46163;52.306;5.634;2023-03-18T11:24:38;100881.19;;;18.56;50.17
60319;BME280;46163;52.306;5.634;2023-03-18T11:29:41;100892.50;;;18.53;50.58
60319;BME280;46163;52.306;5.634;2023-03-18T11:32:33;100888.47;;;18.56;50.58
60319;BME280;46163;52.306;5.634;2023-03-18T11:35:03;100894.66;;;18.56;50.92
60319;BME280;46163;52.306;5.634;2023-03-18T11:37:34;100890.59;;;18.54;50.75
60319;BME280;46163;52.306;5.634;2023-03-18T11:42:40;100889.84;;;18.58;51.35
60319;BME280;46163;52.306;5.634;2023-03-18T11:45:33;100896.88;;;18.59;51.46
60319;BME280;46163;52.306;5.634;2023-03-18T11:48:02;100904.13;;;18.59;51.07
60319;BME280;46163;52.306;5.634;2023-03-18T11:50:38;100910.09;;;18.61;51.16
60319;BME280;46163;52.306;5.634;2023-03-18T11:53:29;100907.16;;;18.62;51.64
60319;BME280;46163;52.306;5.634;2023-03-18T11:59:03;100908.28;;;18.67;51.47
60319;BME280;46163;52.306;5.634;2023-03-18T12:01:39;100904.53;;;18.68;51.61
60319;BME280;46163;52.306;5.634;2023-03-18T12:04:25;100906.19;;;18.69;51.64
60319;BME280;46163;52.306;5.634;2023-03-18T12:09:33;100908.88;;;18.69;51.81
60319;BME280;46163;52.306;5.634;2023-03-18T12:15:04;100898.09;;;18.69;51.79
60319;BME280;46163;52.306;5.634;2023-03-18T12:23:04;100900.81;;;18.74;51.47
60319;BME280;46163;52.306;5.634;2023-03-18T12:26:04;100894.88;;;18.72;51.57
60319;BME280;46163;52.306;5.634;2023-03-18T12:44:30;100885.97;;;18.71;51.49
60319;BME280;46163;52.306;5.634;2023-03-18T12:49:59;100887.59;;;18.72;51.38
60319;BME280;46163;52.306;5.634;2023-03-18T12:52:39;100882.72;;;18.69;51.33
60319;BME280;46163;52.306;5.634;2023-03-18T12:55:51;100892.19;;;18.72;51.59
60319;BME280;46163;52.306;5.634;2023-03-18T12:58:24;100889.50;;;18.72;51.38
60319;BME280;46163;52.306;5.634;2023-03-18T13:03:52;100894.31;;;18.70;51.50
60319;BME280;46163;52.306;5.634;2023-03-18T13:06:34;100892.69;;;18.69;51.25
60319;BME280;46163;52.306;5.634;2023-03-18T13:09:15;100897.28;;;18.68;51.39
60319;BME280;46163;52.306;5.634;2023-03-18T13:17:46;100898.31;;;18.67;51.64
60319;BME280;46163;52.306;5.634;2023-03-18T13:20:21;100899.38;;;18.66;51.48
60319;BME280;46163;52.306;5.634;2023-03-18T13:28:07;100904.44;;;18.62;51.74
60319;BME280;46163;52.306;5.634;2023-03-18T13:33:28;100906.59;;;18.60;51.77
60319;BME280;46163;52.306;5.634;2023-03-18T13:39:02;100892.53;;;18.58;51.96
60319;BME280;46163;52.306;5.634;2023-03-18T13:44:29;100905.44;;;18.56;51.73
60319;BME280;46163;52.306;5.634;2023-03-18T13:47:00;100903.53;;;18.52;51.59
60319;BME280;46163;52.306;5.634;2023-03-18T13:49:32;100898.94;;;18.52;51.79
60319;BME280;46163;52.306;5.634;2023-03-18T13:52:03;100910.53;;;18.53;51.94
60319;BME280;46163;52.306;5.634;2023-03-18T13:54:35;100907.28;;;18.51;51.95
60319;BME280;46163;52.306;5.634;2023-03-18T14:00:11;100902.38;;;18.48;52.04
60319;BME280;46163;52.306;5.634;2023-03-18T14:05:33;100910.72;;;18.46;51.98
60319;BME280;46163;52.306;5.634;2023-03-18T14:08:03;100897.50;;;18.45;51.93
60319;BME280;46163;52.306;5.634;2023-03-18T14:10:30;100895.88;;;18.44;52.18
60319;BME280;46163;52.306;5.634;2023-03-18T14:13:24;100895.38;;;18.47;52.22
60319;BME280;46163;52.306;5.634;2023-03-18T14:15:50;100883.53;;;18.48;52.38
60319;BME280;46163;52.306;5.634;2023-03-18T14:18:18;100886.22;;;18.48;52.17
60319;BME280;46163;52.306;5.634;2023-03-18T14:20:51;100888.91;;;18.48;52.17
60319;BME280;46163;52.306;5.634;2023-03-18T14:23:26;100889.97;;;18.47;52.14
60319;BME280;46163;52.306;5.634;2023-03-18T14:26:18;100881.09;;;18.46;51.88
60319;BME280;46163;52.306;5.634;2023-03-18T14:28:56;100877.56;;;18.46;51.96
60319;BME280;46163;52.306;5.634;2023-03-18T14:34:23;100869.22;;;18.47;51.90
60319;BME280;46163;52.306;5.634;2023-03-18T14:41:56;100863.84;;;18.47;52.02